Terminal Aerodrome Forecast
Issued by NWS Topeka, KS

Home | Current Version | Previous Version | Graphics & Text | Print | Product List | Glossary On
Versions: 1 2 3 4 5 6 7 8 9 10 11 12 13 14 15 16 17 18 19
000
FTUS43 KTOP 222338
TAFTOP
TAF
KTOP 222338Z 2300/2324 28005KT P6SM -SHRA BKN070
     FM230100 23004KT P6SM BKN080
     FM230800 24003KT P6SM VCSH BKN040
     FM231000 36011KT P6SM VCSH BKN040
     FM231500 34013KT P6SM BKN120=

USA.gov is the U.S. government's official web portal to all federal, state and local government web resources and services.